createdAt,value
2022-12-01T00:01:23.435Z,99940.00
2022-12-01T00:03:51.695Z,99949.81
2022-12-01T00:06:21.309Z,99944.34
2022-12-01T00:09:09.487Z,99940.69
2022-12-01T00:11:39.571Z,99955.97
2022-12-01T00:14:07.922Z,99950.22
2022-12-01T00:16:36.166Z,99945.47
2022-12-01T00:19:04.195Z,99944.06
2022-12-01T00:21:32.113Z,99949.25
2022-12-01T00:24:00.093Z,99946.19
2022-12-01T00:26:28.347Z,99939.34
2022-12-01T00:28:58.843Z,99939.03
2022-12-01T00:31:28.376Z,99939.31
2022-12-01T00:33:56.884Z,99948.69
2022-12-01T00:36:25.460Z,99951.09
2022-12-01T00:38:54.809Z,99950.66
2022-12-01T00:41:24.575Z,99951.94
2022-12-01T00:43:52.946Z,99953.94
2022-12-01T00:46:22.541Z,99956.25
2022-12-01T00:48:50.505Z,99957.56
2022-12-01T00:51:18.414Z,99954.31
2022-12-01T00:53:47.124Z,99951.66
2022-12-01T00:56:15.490Z,99953.03
2022-12-01T00:58:43.590Z,99941.09
2022-12-01T01:01:11.768Z,99947.28
2022-12-01T01:03:41.131Z,99963.53
2022-12-01T01:06:11.794Z,99963.63
2022-12-01T01:08:40.069Z,99957.97
2022-12-01T01:11:09.500Z,99960.16
2022-12-01T01:13:38.441Z,99951.06
2022-12-01T01:16:09.411Z,99956.13
2022-12-01T01:18:37.593Z,99960.63
2022-12-01T01:21:09.070Z,99955.75
2022-12-01T01:23:37.192Z,99953.91
2022-12-01T01:26:06.853Z,99954.75
2022-12-01T01:28:34.875Z,99946.63
2022-12-01T01:31:06.952Z,99959.09
2022-12-01T01:33:35.293Z,99952.19
2022-12-01T01:36:04.486Z,99958.38
2022-12-01T01:38:34.318Z,99942.69
2022-12-01T01:41:03.259Z,99953.75
2022-12-01T01:43:44.035Z,99957.00
2022-12-01T01:46:14.272Z,99966.25
2022-12-01T01:48:44.866Z,99950.41
2022-12-01T01:51:15.863Z,99959.09
2022-12-01T01:53:47.866Z,99953.66
2022-12-01T01:56:15.849Z,99960.50
2022-12-01T01:58:45.835Z,99964.06
2022-12-01T02:01:13.977Z,99965.38
2022-12-01T02:03:43.303Z,99961.44
2022-12-01T02:06:12.284Z,99965.63
2022-12-01T02:08:40.224Z,99965.16
2022-12-01T02:11:49.488Z,99978.09
2022-12-01T02:14:34.790Z,99972.91
2022-12-01T02:17:10.264Z,99971.09
2022-12-01T02:20:07.324Z,99965.88
2022-12-01T02:22:54.093Z,99964.25
2022-12-01T02:25:50.123Z,99969.19
2022-12-01T02:28:45.308Z,99970.16
2022-12-01T02:31:17.997Z,99970.44
2022-12-01T02:33:55.267Z,99971.69
2022-12-01T02:36:33.637Z,99957.84
2022-12-01T02:39:08.414Z,99968.66
2022-12-01T02:41:41.231Z,99974.66
2022-12-01T02:44:16.577Z,99972.16
2022-12-01T02:46:50.671Z,99973.41
2022-12-01T02:49:22.709Z,99972.81
2022-12-01T02:51:53.644Z,99976.06
2022-12-01T02:54:23.331Z,99977.03
2022-12-01T02:56:54.191Z,99972.84
2022-12-01T02:59:22.114Z,99975.72
2022-12-01T03:02:02.208Z,99981.56
2022-12-01T03:04:54.021Z,99951.13
2022-12-01T03:07:43.957Z,99980.94
2022-12-01T03:10:19.785Z,99977.88
2022-12-01T03:13:03.022Z,99987.06
2022-12-01T03:15:37.291Z,99977.97
2022-12-01T03:18:19.380Z,99977.41
2022-12-01T03:20:55.550Z,99984.63
2022-12-01T03:23:26.466Z,99975.38
2022-12-01T03:25:56.818Z,99979.69
2022-12-01T03:28:30.298Z,99987.97
2022-12-01T03:31:02.523Z,99990.06
2022-12-01T03:33:36.119Z,99976.91
2022-12-01T03:36:08.258Z,99986.44
2022-12-01T03:38:38.544Z,99987.56
2022-12-01T03:41:10.922Z,99988.25
2022-12-01T03:43:44.686Z,99994.97
2022-12-01T03:46:18.906Z,100000.56
2022-12-01T03:48:48.538Z,100008.22
2022-12-01T03:51:23.066Z,100016.78
2022-12-01T03:53:58.323Z,100024.00
2022-12-01T03:56:31.908Z,100015.78
2022-12-01T03:59:04.340Z,100019.50
2022-12-01T04:01:33.653Z,100019.16
2022-12-01T04:04:08.637Z,100027.44
2022-12-01T04:06:36.951Z,100021.47
2022-12-01T04:09:05.868Z,100036.19
2022-12-01T04:11:51.300Z,100026.22
2022-12-01T04:14:19.220Z,100043.91
2022-12-01T04:16:47.231Z,100041.34
2022-12-01T04:19:16.607Z,100058.34
2022-12-01T04:21:44.736Z,100053.63
2022-12-01T04:24:13.678Z,100048.88
2022-12-01T04:26:42.193Z,100048.72
2022-12-01T04:29:12.109Z,100047.25
2022-12-01T04:31:40.580Z,100031.06
2022-12-01T04:34:08.691Z,100043.88
2022-12-01T04:36:38.054Z,100052.09
2022-12-01T04:39:06.517Z,100053.84
2022-12-01T04:41:34.599Z,100060.53
2022-12-01T04:44:02.806Z,100056.19
2022-12-01T04:46:30.939Z,100022.72
2022-12-01T04:48:59.000Z,100062.91
2022-12-01T04:51:27.049Z,100059.53
2022-12-01T04:53:58.754Z,100057.19
2022-12-01T04:56:27.016Z,100062.22
2022-12-01T04:58:55.002Z,100060.06
2022-12-01T05:01:23.087Z,100065.53
2022-12-01T05:03:51.050Z,100056.78
2022-12-01T05:06:21.797Z,100054.78
2022-12-01T05:08:50.294Z,100055.09
2022-12-01T05:11:20.090Z,100052.28
2022-12-01T05:13:50.055Z,100058.34
2022-12-01T05:16:20.013Z,100047.75
2022-12-01T05:19:13.115Z,100052.75
2022-12-01T05:21:41.129Z,100043.81
2022-12-01T05:24:10.032Z,100042.72
2022-12-01T05:26:39.503Z,100037.78
2022-12-01T05:29:07.987Z,100033.88
2022-12-01T05:31:36.318Z,100036.50
2022-12-01T05:34:04.300Z,100033.28
2022-12-01T05:36:33.104Z,100036.00
2022-12-01T05:39:01.044Z,100032.41
2022-12-01T05:41:29.121Z,100017.03
2022-12-01T05:43:58.448Z,100036.88
2022-12-01T05:46:26.675Z,100042.19
2022-12-01T05:48:54.774Z,100041.38
2022-12-01T05:51:22.728Z,100046.69
2022-12-01T05:53:50.699Z,100038.28
2022-12-01T05:56:18.933Z,100039.16
2022-12-01T05:58:46.846Z,100047.78
2022-12-01T06:01:16.178Z,100037.19
2022-12-01T06:03:44.169Z,100042.78
2022-12-01T06:06:12.144Z,100037.88
2022-12-01T06:08:40.059Z,100046.09
2022-12-01T06:11:08.113Z,100047.50
2022-12-01T06:13:36.033Z,100047.19
2022-12-01T06:16:07.091Z,100043.00
2022-12-01T06:18:38.004Z,100049.22
2022-12-01T06:21:07.780Z,100040.31
2022-12-01T06:23:35.945Z,100047.25
2022-12-01T06:26:03.955Z,100040.44
2022-12-01T06:28:32.001Z,100055.41
2022-12-01T06:31:03.360Z,100047.78
2022-12-01T06:33:31.611Z,100054.19
2022-12-01T06:36:01.560Z,100057.88
2022-12-01T06:38:32.239Z,100046.66
2022-12-01T06:41:00.368Z,100046.22
2022-12-01T06:43:28.543Z,100056.81
2022-12-01T06:46:01.706Z,100049.50
2022-12-01T06:48:30.221Z,100053.81
2022-12-01T06:50:58.686Z,100051.91
2022-12-01T06:53:28.536Z,100048.31
2022-12-01T06:56:01.103Z,100049.56
2022-12-01T06:58:29.480Z,100055.84
2022-12-01T07:00:58.939Z,100053.16
2022-12-01T07:03:27.136Z,100045.44
2022-12-01T07:05:59.954Z,100050.25
2022-12-01T07:08:30.390Z,100047.28
2022-12-01T07:10:59.832Z,100064.28
2022-12-01T07:13:33.111Z,100050.59
2022-12-01T07:16:02.100Z,100052.00
2022-12-01T07:18:30.344Z,100045.00
2022-12-01T07:21:01.082Z,100047.31
2022-12-01T07:23:30.476Z,100068.97
2022-12-01T07:26:02.504Z,100061.84
2022-12-01T07:28:30.709Z,100075.72
2022-12-01T07:31:06.655Z,100077.19
2022-12-01T07:33:35.611Z,100077.53
2022-12-01T07:36:04.506Z,100102.03
2022-12-01T07:38:35.247Z,100096.91
2022-12-01T07:41:04.420Z,100089.44
2022-12-01T07:43:32.823Z,100085.38
2022-12-01T07:46:06.538Z,100081.69
2022-12-01T07:48:34.566Z,100086.22
2022-12-01T07:51:03.061Z,100091.03
2022-12-01T07:53:30.987Z,100092.66
2022-12-01T07:56:04.337Z,100093.41
2022-12-01T07:58:36.215Z,100097.53
2022-12-01T08:01:08.245Z,100078.19
2022-12-01T08:03:36.599Z,100094.06
2022-12-01T08:06:06.230Z,100091.03
2022-12-01T08:08:35.320Z,100080.63
2022-12-01T08:11:07.302Z,100095.41
2022-12-01T08:13:35.255Z,100097.66
2022-12-01T08:16:04.761Z,100097.53
2022-12-01T08:18:32.746Z,100099.31
2022-12-01T08:21:00.685Z,100101.88
2022-12-01T08:23:28.893Z,100098.56
2022-12-01T08:25:57.594Z,100108.97
2022-12-01T08:28:27.180Z,100101.50
2022-12-01T08:30:55.274Z,100101.25
2022-12-01T08:33:24.030Z,100112.84
2022-12-01T08:35:51.978Z,100114.13
2022-12-01T08:38:19.967Z,100110.44
2022-12-01T08:40:47.914Z,100101.03
2022-12-01T08:43:41.399Z,100112.50
2022-12-01T08:46:05.198Z,100119.06
2022-12-01T08:48:33.357Z,100115.94
2022-12-01T08:51:09.790Z,100125.88
2022-12-01T08:53:45.277Z,100117.19
2022-12-01T08:56:17.273Z,100076.69
2022-12-01T08:58:45.451Z,100134.56
2022-12-01T09:01:17.349Z,100127.81
2022-12-01T09:03:45.817Z,100146.69
2022-12-01T09:06:16.019Z,100146.69
2022-12-01T09:08:44.373Z,100138.13
2022-12-01T09:11:15.184Z,100133.13
2022-12-01T09:13:44.426Z,100107.34
2022-12-01T09:16:16.576Z,100110.63
2022-12-01T09:18:46.067Z,100139.66
2022-12-01T09:21:16.342Z,100138.03
2022-12-01T09:23:44.774Z,100135.59
2022-12-01T09:26:18.265Z,100128.31
2022-12-01T09:28:46.941Z,100126.69
2022-12-01T09:31:18.508Z,100129.06
2022-12-01T09:33:46.670Z,100128.19
2022-12-01T09:36:15.010Z,100105.31
2022-12-01T09:38:43.001Z,100137.06
2022-12-01T09:41:26.292Z,100109.50
2022-12-01T09:44:02.191Z,100101.88
2022-12-01T09:46:42.805Z,100140.44
2022-12-01T09:49:18.847Z,100148.06
2022-12-01T09:51:47.122Z,100145.59
2022-12-01T09:54:15.774Z,100152.50
2022-12-01T09:56:46.997Z,100151.97
2022-12-01T09:59:22.558Z,100147.28
2022-12-01T10:01:56.767Z,100143.53
2022-12-01T10:04:29.306Z,100144.66
2022-12-01T10:07:01.294Z,100151.28
2022-12-01T10:09:41.130Z,100155.34
2022-12-01T10:12:15.896Z,100159.06
2022-12-01T10:14:46.078Z,100160.75
2022-12-01T10:17:25.729Z,100157.03
2022-12-01T10:20:02.301Z,100163.00
2022-12-01T10:22:46.725Z,100146.13
2022-12-01T10:25:22.516Z,100156.72
2022-12-01T10:28:13.622Z,100160.84
2022-12-01T10:30:50.509Z,100167.78
2022-12-01T10:33:25.381Z,100152.38
2022-12-01T10:35:54.188Z,100162.03
2022-12-01T10:38:28.025Z,100171.25
2022-12-01T10:40:59.896Z,100175.84
2022-12-01T10:43:35.381Z,100166.66
2022-12-01T10:46:22.572Z,100154.72
2022-12-01T10:48:57.295Z,100159.91
2022-12-01T10:51:26.348Z,100151.22
2022-12-01T10:54:00.783Z,100136.06
2022-12-01T10:56:29.235Z,100151.38
2022-12-01T10:59:00.520Z,100157.25
2022-12-01T11:01:32.105Z,100157.50
2022-12-01T11:04:07.544Z,100156.16
2022-12-01T11:06:36.485Z,100160.50
2022-12-01T11:09:07.638Z,100156.97
2022-12-01T11:11:38.782Z,100151.72
2022-12-01T11:14:34.751Z,100156.59
2022-12-01T11:17:17.253Z,100144.97
2022-12-01T11:19:46.680Z,100151.00
2022-12-01T11:22:22.729Z,100168.31
2022-12-01T11:25:05.096Z,100161.97
2022-12-01T11:27:36.609Z,100167.88
2022-12-01T11:30:09.404Z,100167.50
2022-12-01T11:32:41.032Z,100145.53
2022-12-01T11:35:19.831Z,100165.13
2022-12-01T11:38:27.746Z,100159.25
2022-12-01T11:40:49.240Z,100157.94
2022-12-01T11:43:26.498Z,100161.97
2022-12-01T11:45:57.146Z,100163.78
2022-12-01T11:48:29.907Z,100155.63
2022-12-01T11:51:16.538Z,100153.09
2022-12-01T11:53:45.508Z,100146.84
2022-12-01T11:56:20.916Z,100140.63
2022-12-01T11:58:51.397Z,100144.25
2022-12-01T12:01:33.412Z,100138.81
2022-12-01T12:04:15.142Z,100148.88
2022-12-01T12:06:53.690Z,100133.59
2022-12-01T12:09:44.886Z,100135.88
2022-12-01T12:12:26.087Z,100125.97
2022-12-01T12:15:05.577Z,100129.28
2022-12-01T12:17:59.690Z,100121.63
2022-12-01T12:20:38.863Z,100113.78
2022-12-01T12:23:24.753Z,100129.19
2022-12-01T12:26:04.486Z,100121.81
2022-12-01T12:28:53.827Z,100122.94
2022-12-01T12:31:29.447Z,100120.97
2022-12-01T12:34:36.506Z,100111.97
2022-12-01T12:37:17.673Z,100115.78
2022-12-01T12:40:05.159Z,100111.16
2022-12-01T12:42:40.995Z,100111.94
2022-12-01T12:45:20.391Z,100103.94
2022-12-01T12:48:02.681Z,100114.03
2022-12-01T12:50:44.942Z,100107.97
2022-12-01T12:53:19.300Z,100112.97
2022-12-01T12:55:52.424Z,100107.25
2022-12-01T12:58:24.999Z,100118.69
2022-12-01T13:01:01.112Z,100102.06
2022-12-01T13:03:42.993Z,100110.84
2022-12-01T13:06:21.447Z,100115.66
2022-12-01T13:08:54.320Z,100102.75
2022-12-01T13:11:29.216Z,100108.94
2022-12-01T13:14:03.749Z,100111.19
2022-12-01T13:16:36.774Z,100111.69
2022-12-01T13:19:13.244Z,100114.19
2022-12-01T13:21:44.817Z,100105.47
2022-12-01T13:24:21.322Z,100109.38
2022-12-01T13:26:58.828Z,100095.34
2022-12-01T13:29:28.417Z,100083.63
2022-12-01T13:31:56.574Z,100082.16
2022-12-01T13:34:30.695Z,100082.50
2022-12-01T13:36:58.748Z,100089.88
2022-12-01T13:39:28.914Z,100085.69
2022-12-01T13:42:07.741Z,100084.53
2022-12-01T13:44:41.825Z,100086.69
2022-12-01T13:47:32.566Z,100080.19
2022-12-01T13:50:33.325Z,100084.25
2022-12-01T13:53:12.004Z,100090.44
2022-12-01T13:55:58.021Z,100093.63
2022-12-01T13:58:44.035Z,100092.75
2022-12-01T14:01:44.103Z,100093.38
2022-12-01T14:04:30.380Z,100092.44
2022-12-01T14:07:36.067Z,100085.66
2022-12-01T14:10:25.383Z,100077.44
2022-12-01T14:12:56.953Z,100078.41
2022-12-01T14:15:36.053Z,100078.38
2022-12-01T14:18:08.170Z,100062.41
2022-12-01T14:20:44.780Z,100063.25
2022-12-01T14:23:17.397Z,100056.56
2022-12-01T14:26:00.116Z,100064.66
2022-12-01T14:29:10.209Z,100071.41
2022-12-01T14:32:06.741Z,100073.06
2022-12-01T14:34:35.950Z,100068.34
2022-12-01T14:37:08.392Z,100066.34
2022-12-01T14:39:39.291Z,100074.31
2022-12-01T14:42:53.451Z,100073.59
2022-12-01T14:45:27.079Z,100081.34
2022-12-01T14:48:04.109Z,100075.97
2022-12-01T14:50:46.167Z,100073.81
2022-12-01T14:53:23.664Z,100071.94
2022-12-01T14:55:57.665Z,100074.34
2022-12-01T14:58:28.864Z,100079.41
2022-12-01T15:01:05.111Z,100073.53
2022-12-01T15:03:39.433Z,100071.41
2022-12-01T15:06:08.757Z,100068.88
2022-12-01T15:08:43.702Z,100066.34
2022-12-01T15:11:22.887Z,100076.88
2022-12-01T15:13:53.018Z,100054.56
2022-12-01T15:16:22.831Z,100076.59
2022-12-01T15:18:53.200Z,100068.63
2022-12-01T15:21:23.859Z,100080.66
2022-12-01T15:23:57.578Z,100036.03
2022-12-01T15:26:29.866Z,100082.03
2022-12-01T15:29:15.730Z,100078.53
2022-12-01T15:31:44.810Z,100077.13
2022-12-01T15:34:18.365Z,100083.38
2022-12-01T15:36:47.260Z,100067.03
2022-12-01T15:39:18.068Z,100084.09
2022-12-01T15:41:48.439Z,100086.56
2022-12-01T15:44:27.405Z,100038.09
2022-12-01T15:46:55.624Z,100063.91
2022-12-01T15:49:29.895Z,100073.53
2022-12-01T15:52:08.376Z,100075.38
2022-12-01T15:54:38.695Z,100076.75
2022-12-01T15:57:07.234Z,100059.16
2022-12-01T15:59:40.398Z,100056.56
2022-12-01T16:02:32.980Z,100071.84
2022-12-01T16:05:05.205Z,100059.22
2022-12-01T16:08:11.693Z,100079.53
2022-12-01T16:10:30.995Z,100077.66
2022-12-01T16:13:36.236Z,100088.31
2022-12-01T16:16:30.029Z,100082.97
2022-12-01T16:18:59.935Z,100080.63
2022-12-01T16:21:31.923Z,100066.31
2022-12-01T16:24:02.203Z,100069.69
2022-12-01T16:26:30.938Z,100088.03
2022-12-01T16:28:59.570Z,100075.78
2022-12-01T16:31:28.650Z,100073.31
2022-12-01T16:34:18.583Z,100086.72
2022-12-01T16:36:53.985Z,100085.47
2022-12-01T16:39:21.875Z,100089.19
2022-12-01T16:41:50.109Z,100097.63
2022-12-01T16:44:28.538Z,100087.81
2022-12-01T16:46:57.723Z,100092.09
2022-12-01T16:49:26.445Z,100091.47
2022-12-01T16:51:57.387Z,100087.88
2022-12-01T16:54:26.639Z,100096.44
2022-12-01T16:56:54.586Z,100086.06
2022-12-01T16:59:22.496Z,100079.06
2022-12-01T17:01:50.488Z,100096.22
2022-12-01T17:04:18.432Z,100085.75
2022-12-01T17:06:46.482Z,100083.59
2022-12-01T17:09:15.756Z,100078.25
2022-12-01T17:11:43.715Z,100087.69
2022-12-01T17:14:12.132Z,100092.69
2022-12-01T17:16:40.170Z,100081.16
2022-12-01T17:19:08.161Z,100094.19
2022-12-01T17:21:36.060Z,100086.22
2022-12-01T17:24:04.485Z,100085.13
2022-12-01T17:26:33.960Z,100096.34
2022-12-01T17:29:02.208Z,100091.88
2022-12-01T17:31:30.297Z,100092.28
2022-12-01T17:33:58.355Z,100088.09
2022-12-01T17:36:26.307Z,100088.16
2022-12-01T17:38:54.231Z,100093.44
2022-12-01T17:41:24.839Z,100084.00
2022-12-01T17:43:54.506Z,100090.03
2022-12-01T17:46:23.363Z,100092.72
2022-12-01T17:48:51.605Z,100056.97
2022-12-01T17:51:19.760Z,100100.00
2022-12-01T17:53:47.778Z,100090.84
2022-12-01T17:56:17.998Z,100097.31
2022-12-01T17:58:45.965Z,100095.63
2022-12-01T18:01:17.872Z,100087.91
2022-12-01T18:03:46.404Z,100093.41
2022-12-01T18:06:15.502Z,100093.06
2022-12-01T18:08:44.221Z,100091.81
2022-12-01T18:11:14.354Z,100091.28
2022-12-01T18:13:44.544Z,100098.44
2022-12-01T18:16:16.898Z,100096.22
2022-12-01T18:18:45.354Z,100099.72
2022-12-01T18:21:15.445Z,100101.22
2022-12-01T18:23:49.000Z,100098.69
2022-12-01T18:26:16.941Z,100091.94
2022-12-01T18:28:45.270Z,100102.31
2022-12-01T18:31:17.239Z,100103.69
2022-12-01T18:33:46.124Z,100097.84
2022-12-01T18:36:16.654Z,100099.44
2022-12-01T18:38:44.622Z,100096.34
2022-12-01T18:41:12.506Z,100097.84
2022-12-01T18:43:40.984Z,100093.09
2022-12-01T18:46:10.037Z,100092.78
2022-12-01T18:48:39.707Z,100094.88
2022-12-01T18:51:09.391Z,100101.78
2022-12-01T18:53:37.677Z,100097.16
2022-12-01T18:56:08.355Z,100091.81
2022-12-01T18:58:37.443Z,100081.66
2022-12-01T19:01:17.966Z,100091.25
2022-12-01T19:03:47.500Z,100090.41
2022-12-01T19:06:15.933Z,100081.09
2022-12-01T19:08:43.894Z,100077.34
2022-12-01T19:11:14.964Z,100079.44
2022-12-01T19:13:42.981Z,100073.44
2022-12-01T19:16:13.184Z,100082.41
2022-12-01T19:18:41.847Z,100083.22
2022-12-01T19:21:13.479Z,100086.53
2022-12-01T19:23:42.184Z,100088.63
2022-12-01T19:26:13.850Z,100086.53
2022-12-01T19:28:45.576Z,100081.75
2022-12-01T19:31:17.176Z,100084.28
2022-12-01T19:33:45.117Z,100091.16
2022-12-01T19:36:19.401Z,100088.44
2022-12-01T19:38:47.416Z,100087.22
2022-12-01T19:41:16.069Z,100083.84
2022-12-01T19:43:44.189Z,100087.91
2022-12-01T19:46:14.751Z,100093.09
2022-12-01T19:48:43.436Z,100078.97
2022-12-01T19:51:19.854Z,100084.28
2022-12-01T19:53:47.964Z,100091.88
2022-12-01T19:56:15.972Z,100085.16
2022-12-01T19:58:44.017Z,100092.38
2022-12-01T20:01:14.497Z,100095.75
2022-12-01T20:03:43.391Z,100089.84
2022-12-01T20:06:13.053Z,100097.59
2022-12-01T20:08:43.219Z,100090.03
2022-12-01T20:11:13.287Z,100097.81
2022-12-01T20:13:43.778Z,100093.50
2022-12-01T20:16:14.654Z,100091.91
2022-12-01T20:18:43.331Z,100084.31
2022-12-01T20:21:16.386Z,100090.00
2022-12-01T20:23:47.745Z,100082.50
2022-12-01T20:26:17.010Z,100089.25
2022-12-01T20:28:45.907Z,100081.34
2022-12-01T20:31:16.276Z,100091.81
2022-12-01T20:33:44.655Z,100082.13
2022-12-01T20:36:14.497Z,100078.69
2022-12-01T20:38:42.876Z,100096.78
2022-12-01T20:41:13.300Z,100089.97
2022-12-01T20:43:41.928Z,100092.63
2022-12-01T20:46:10.215Z,100081.88
2022-12-01T20:48:38.232Z,100081.69
2022-12-01T20:51:09.825Z,100088.19
2022-12-01T20:53:37.865Z,100085.94
2022-12-01T20:56:08.594Z,100091.97
2022-12-01T20:58:38.988Z,100091.00
2022-12-01T21:01:11.445Z,100098.81
2022-12-01T21:03:44.420Z,100093.16
2022-12-01T21:06:14.697Z,100097.13
2022-12-01T21:08:44.756Z,100098.19
2022-12-01T21:11:18.995Z,100088.09
2022-12-01T21:13:47.692Z,100088.63
2022-12-01T21:16:23.440Z,100082.47
2022-12-01T21:18:53.609Z,100082.47
2022-12-01T21:21:25.277Z,100079.06
2022-12-01T21:24:11.141Z,100083.56
2022-12-01T21:26:42.161Z,100085.94
2022-12-01T21:29:20.524Z,100080.34
2022-12-01T21:31:51.888Z,100077.09
2022-12-01T21:34:22.345Z,100075.72
2022-12-01T21:36:51.747Z,100085.97
2022-12-01T21:39:22.476Z,100083.31
2022-12-01T21:41:52.348Z,100091.00
2022-12-01T21:44:23.935Z,100089.00
2022-12-01T21:46:57.578Z,100091.78
2022-12-01T21:49:37.440Z,100085.88
2022-12-01T21:52:13.513Z,100090.00
2022-12-01T21:54:41.535Z,100090.59
2022-12-01T21:57:30.840Z,100095.09
2022-12-01T22:00:24.971Z,100086.84
2022-12-01T22:02:59.664Z,100088.38
2022-12-01T22:05:32.557Z,100084.47
2022-12-01T22:08:09.047Z,100086.16
2022-12-01T22:10:56.915Z,100084.63
2022-12-01T22:13:27.155Z,100077.13
2022-12-01T22:15:57.956Z,100079.66
2022-12-01T22:18:33.253Z,100086.09
2022-12-01T22:21:02.551Z,100086.22
2022-12-01T22:23:34.248Z,100073.25
2022-12-01T22:26:02.672Z,100089.16
2022-12-01T22:28:30.707Z,100092.81
2022-12-01T22:31:00.167Z,100096.78
2022-12-01T22:33:34.463Z,100090.72
2022-12-01T22:36:02.476Z,100094.50
2022-12-01T22:38:36.720Z,100092.16
2022-12-01T22:41:06.913Z,100101.44
2022-12-01T22:43:45.410Z,100094.19
2022-12-01T22:46:32.721Z,100098.59
2022-12-01T22:49:04.264Z,100085.06
2022-12-01T22:51:38.269Z,100095.25
2022-12-01T22:54:25.708Z,100086.22
2022-12-01T22:57:06.976Z,100087.06
2022-12-01T22:59:37.525Z,100097.31
2022-12-01T23:02:20.970Z,100090.00
2022-12-01T23:04:56.942Z,100090.84
2022-12-01T23:07:31.428Z,100082.72
2022-12-01T23:10:05.757Z,100088.00
2022-12-01T23:12:43.718Z,100067.03
2022-12-01T23:15:34.033Z,100083.13
2022-12-01T23:18:12.726Z,100084.41
2022-12-01T23:20:42.336Z,100081.44
2022-12-01T23:23:14.945Z,100076.88
2022-12-01T23:25:43.994Z,100075.91
2022-12-01T23:28:14.176Z,100081.63
2022-12-01T23:30:46.326Z,100069.56
2022-12-01T23:33:22.295Z,100073.38
2022-12-01T23:35:54.961Z,100073.50
2022-12-01T23:38:25.674Z,100064.53
2022-12-01T23:40:56.808Z,100072.75
2022-12-01T23:43:26.732Z,100070.06
2022-12-01T23:46:03.435Z,100070.72
2022-12-01T23:48:35.973Z,100072.75
2022-12-01T23:51:03.985Z,100057.34
2022-12-01T23:53:33.908Z,100054.25
2022-12-01T23:56:06.683Z,100063.38
2022-12-01T23:58:35.439Z,100056.53
